createdAt,value
2023-10-26T00:01:13.410Z,1.98
2023-10-26T00:03:58.631Z,2.44
2023-10-26T00:06:44.040Z,1.77
2023-10-26T00:09:29.570Z,2.02
2023-10-26T00:12:15.370Z,2.48
2023-10-26T00:15:00.827Z,2.18
2023-10-26T00:17:46.648Z,1.91
2023-10-26T00:20:31.946Z,1.90
2023-10-26T00:23:16.913Z,1.75
2023-10-26T00:26:02.088Z,1.82
2023-10-26T00:28:47.488Z,1.81
2023-10-26T00:31:32.404Z,1.92
2023-10-26T00:34:17.403Z,1.79
2023-10-26T00:37:03.080Z,1.76
2023-10-26T00:39:48.102Z,1.53
2023-10-26T00:42:33.572Z,1.83
2023-10-26T00:45:19.289Z,1.69
2023-10-26T00:48:04.716Z,2.01
2023-10-26T00:50:50.183Z,1.52
2023-10-26T00:53:35.421Z,1.65
2023-10-26T00:56:20.371Z,1.78
2023-10-26T00:59:05.785Z,1.52
2023-10-26T01:01:50.675Z,1.88
2023-10-26T01:04:35.696Z,1.67
2023-10-26T01:07:21.018Z,1.54
2023-10-26T01:10:06.068Z,1.43
2023-10-26T01:12:51.657Z,1.53
2023-10-26T01:15:37.270Z,1.53
2023-10-26T01:18:22.954Z,1.77
2023-10-26T01:21:08.440Z,1.52
2023-10-26T01:23:53.876Z,1.45
2023-10-26T01:26:39.188Z,1.35
2023-10-26T01:29:24.253Z,1.56
2023-10-26T01:32:09.845Z,1.61
2023-10-26T01:34:55.238Z,1.53
2023-10-26T01:37:40.728Z,1.45
2023-10-26T01:40:26.260Z,1.53
2023-10-26T01:43:11.354Z,1.38
2023-10-26T01:45:56.325Z,1.60
2023-10-26T01:48:41.828Z,1.65
2023-10-26T01:51:27.435Z,1.78
2023-10-26T01:54:13.021Z,1.32
2023-10-26T01:56:58.423Z,1.41
2023-10-26T01:59:43.701Z,1.49
2023-10-26T02:02:29.143Z,1.41
2023-10-26T02:05:14.658Z,1.41
2023-10-26T02:08:00.019Z,1.33
2023-10-26T02:10:44.958Z,1.65
2023-10-26T02:13:30.267Z,1.07
2023-10-26T02:16:15.376Z,1.39
2023-10-26T02:19:00.397Z,1.23
2023-10-26T02:21:45.672Z,1.20
2023-10-26T02:24:30.761Z,1.48
2023-10-26T02:27:16.246Z,1.33
2023-10-26T02:30:01.810Z,1.23
2023-10-26T02:32:47.225Z,1.14
2023-10-26T02:35:32.673Z,1.13
2023-10-26T02:38:17.733Z,1.12
2023-10-26T02:41:02.579Z,1.27
2023-10-26T02:43:47.645Z,1.23
2023-10-26T02:46:32.697Z,1.23
2023-10-26T02:49:17.777Z,1.18
2023-10-26T02:52:03.341Z,1.34
2023-10-26T02:54:48.704Z,1.25
2023-10-26T02:57:34.275Z,1.29
2023-10-26T03:00:19.716Z,1.22
2023-10-26T03:03:05.392Z,1.28
2023-10-26T03:05:50.809Z,1.31
